sensor_id;sensor_type;location;lat;lon;timestamp;P1;durP1;ratioP1;P2;durP2;ratioP2
33862;SDS011;20158;51.436;-2.742;2023-06-22T00:01:01;3.50;;;2.88;;
33862;SDS011;20158;51.436;-2.742;2023-06-22T00:03:27;4.60;;;3.10;;
33862;SDS011;20158;51.436;-2.742;2023-06-22T00:05:53;4.43;;;3.03;;
33862;SDS011;20158;51.436;-2.742;2023-06-22T00:08:19;3.40;;;3.10;;
33862;SDS011;20158;51.436;-2.742;2023-06-22T00:10:45;3.42;;;3.13;;
33862;SDS011;20158;51.436;-2.742;2023-06-22T00:13:12;3.28;;;2.97;;
33862;SDS011;20158;51.436;-2.742;2023-06-22T00:15:42;3.08;;;2.80;;
33862;SDS011;20158;51.436;-2.742;2023-06-22T00:18:09;2.95;;;2.67;;
33862;SDS011;20158;51.436;-2.742;2023-06-22T00:20:45;3.45;;;2.85;;
33862;SDS011;20158;51.436;-2.742;2023-06-22T00:23:11;3.30;;;3.10;;
33862;SDS011;20158;51.436;-2.742;2023-06-22T00:25:37;3.05;;;2.72;;
33862;SDS011;20158;51.436;-2.742;2023-06-22T00:28:07;2.65;;;2.45;;
33862;SDS011;20158;51.436;-2.742;2023-06-22T00:30:34;2.80;;;2.60;;
33862;SDS011;20158;51.436;-2.742;2023-06-22T00:33:00;3.65;;;3.35;;
33862;SDS011;20158;51.436;-2.742;2023-06-22T00:35:28;3.78;;;3.38;;
33862;SDS011;20158;51.436;-2.742;2023-06-22T00:37:55;3.60;;;2.72;;
33862;SDS011;20158;51.436;-2.742;2023-06-22T00:40:32;3.10;;;2.90;;
33862;SDS011;20158;51.436;-2.742;2023-06-22T00:42:58;3.03;;;2.72;;
33862;SDS011;20158;51.436;-2.742;2023-06-22T00:45:25;2.92;;;2.65;;
33862;SDS011;20158;51.436;-2.742;2023-06-22T00:47:52;3.55;;;3.25;;
33862;SDS011;20158;51.436;-2.742;2023-06-22T00:50:20;3.70;;;3.28;;
33862;SDS011;20158;51.436;-2.742;2023-06-22T00:52:53;3.00;;;2.80;;
33862;SDS011;20158;51.436;-2.742;2023-06-22T00:55:25;2.92;;;2.72;;
33862;SDS011;20158;51.436;-2.742;2023-06-22T00:57:52;4.00;;;3.60;;
33862;SDS011;20158;51.436;-2.742;2023-06-22T01:00:22;3.45;;;3.15;;
33862;SDS011;20158;51.436;-2.742;2023-06-22T01:02:52;4.25;;;2.88;;
33862;SDS011;20158;51.436;-2.742;2023-06-22T01:05:20;5.13;;;3.22;;
33862;SDS011;20158;51.436;-2.742;2023-06-22T01:10:51;3.55;;;3.25;;
33862;SDS011;20158;51.436;-2.742;2023-06-22T01:13:29;3.47;;;3.17;;
33862;SDS011;20158;51.436;-2.742;2023-06-22T01:16:42;3.50;;;3.20;;
33862;SDS011;20158;51.436;-2.742;2023-06-22T01:18:46;3.08;;;2.78;;
33862;SDS011;20158;51.436;-2.742;2023-06-22T01:21:17;3.40;;;3.10;;
33862;SDS011;20158;51.436;-2.742;2023-06-22T01:29:27;3.55;;;3.25;;
33862;SDS011;20158;51.436;-2.742;2023-06-22T01:31:55;3.80;;;3.50;;
33862;SDS011;20158;51.436;-2.742;2023-06-22T01:34:23;3.85;;;3.55;;
33862;SDS011;20158;51.436;-2.742;2023-06-22T01:36:50;4.30;;;3.90;;
33862;SDS011;20158;51.436;-2.742;2023-06-22T01:39:18;3.42;;;3.13;;
33862;SDS011;20158;51.436;-2.742;2023-06-22T01:41:44;3.90;;;3.60;;
33862;SDS011;20158;51.436;-2.742;2023-06-22T01:44:14;3.50;;;3.20;;
33862;SDS011;20158;51.436;-2.742;2023-06-22T01:46:44;3.90;;;3.40;;
33862;SDS011;20158;51.436;-2.742;2023-06-22T01:49:10;3.70;;;3.40;;
33862;SDS011;20158;51.436;-2.742;2023-06-22T01:51:36;3.50;;;3.20;;
33862;SDS011;20158;51.436;-2.742;2023-06-22T01:54:05;3.88;;;3.58;;
33862;SDS011;20158;51.436;-2.742;2023-06-22T01:56:32;3.95;;;3.65;;
33862;SDS011;20158;51.436;-2.742;2023-06-22T02:01:33;3.20;;;2.90;;
33862;SDS011;20158;51.436;-2.742;2023-06-22T02:04:06;4.20;;;3.58;;
33862;SDS011;20158;51.436;-2.742;2023-06-22T02:06:39;3.40;;;3.10;;
33862;SDS011;20158;51.436;-2.742;2023-06-22T02:09:15;3.67;;;3.38;;
33862;SDS011;20158;51.436;-2.742;2023-06-22T02:11:44;3.65;;;3.35;;
33862;SDS011;20158;51.436;-2.742;2023-06-22T02:14:16;3.65;;;3.25;;
33862;SDS011;20158;51.436;-2.742;2023-06-22T02:16:43;4.13;;;3.83;;
33862;SDS011;20158;51.436;-2.742;2023-06-22T02:19:10;4.65;;;4.05;;
33862;SDS011;20158;51.436;-2.742;2023-06-22T02:21:36;4.28;;;3.40;;
33862;SDS011;20158;51.436;-2.742;2023-06-22T02:24:03;4.00;;;3.60;;
33862;SDS011;20158;51.436;-2.742;2023-06-22T02:26:30;3.63;;;3.38;;
33862;SDS011;20158;51.436;-2.742;2023-06-22T02:28:59;3.75;;;3.45;;
33862;SDS011;20158;51.436;-2.742;2023-06-22T02:31:25;3.80;;;3.50;;
33862;SDS011;20158;51.436;-2.742;2023-06-22T02:33:58;3.83;;;3.35;;
33862;SDS011;20158;51.436;-2.742;2023-06-22T02:36:25;4.28;;;3.88;;
33862;SDS011;20158;51.436;-2.742;2023-06-22T02:38:52;3.95;;;3.65;;
33862;SDS011;20158;51.436;-2.742;2023-06-22T02:41:19;4.43;;;3.67;;
33862;SDS011;20158;51.436;-2.742;2023-06-22T02:43:45;4.18;;;3.88;;
33862;SDS011;20158;51.436;-2.742;2023-06-22T02:46:12;4.05;;;3.72;;
33862;SDS011;20158;51.436;-2.742;2023-06-22T02:48:40;3.42;;;3.15;;
33862;SDS011;20158;51.436;-2.742;2023-06-22T02:51:07;3.95;;;3.65;;
33862;SDS011;20158;51.436;-2.742;2023-06-22T02:53:35;4.88;;;4.18;;
33862;SDS011;20158;51.436;-2.742;2023-06-22T02:56:02;4.72;;;4.22;;
33862;SDS011;20158;51.436;-2.742;2023-06-22T02:58:31;3.97;;;3.67;;
33862;SDS011;20158;51.436;-2.742;2023-06-22T03:01:08;4.32;;;4.03;;
33862;SDS011;20158;51.436;-2.742;2023-06-22T03:03:39;4.45;;;4.15;;
33862;SDS011;20158;51.436;-2.742;2023-06-22T03:06:05;4.10;;;3.70;;
33862;SDS011;20158;51.436;-2.742;2023-06-22T03:08:32;5.50;;;5.00;;
33862;SDS011;20158;51.436;-2.742;2023-06-22T03:10:58;4.65;;;4.25;;
33862;SDS011;20158;51.436;-2.742;2023-06-22T03:13:24;4.53;;;4.13;;
33862;SDS011;20158;51.436;-2.742;2023-06-22T03:15:54;4.60;;;3.78;;
33862;SDS011;20158;51.436;-2.742;2023-06-22T03:18:20;4.32;;;4.03;;
33862;SDS011;20158;51.436;-2.742;2023-06-22T03:20:47;5.07;;;4.30;;
33862;SDS011;20158;51.436;-2.742;2023-06-22T03:23:14;4.20;;;3.75;;
33862;SDS011;20158;51.436;-2.742;2023-06-22T03:25:40;4.50;;;4.20;;
33862;SDS011;20158;51.436;-2.742;2023-06-22T03:28:07;4.00;;;3.67;;
33862;SDS011;20158;51.436;-2.742;2023-06-22T03:30:33;4.63;;;4.22;;
33862;SDS011;20158;51.436;-2.742;2023-06-22T03:33:00;5.15;;;4.70;;
33862;SDS011;20158;51.436;-2.742;2023-06-22T03:35:26;4.35;;;4.03;;
33862;SDS011;20158;51.436;-2.742;2023-06-22T03:37:53;4.30;;;3.90;;
33862;SDS011;20158;51.436;-2.742;2023-06-22T03:40:19;4.53;;;4.13;;
33862;SDS011;20158;51.436;-2.742;2023-06-22T03:43:05;5.18;;;4.07;;
33862;SDS011;20158;51.436;-2.742;2023-06-22T03:45:32;4.43;;;4.03;;
33862;SDS011;20158;51.436;-2.742;2023-06-22T03:48:01;4.25;;;3.85;;
33862;SDS011;20158;51.436;-2.742;2023-06-22T03:50:27;4.97;;;4.47;;
33862;SDS011;20158;51.436;-2.742;2023-06-22T03:52:53;4.30;;;3.90;;
33862;SDS011;20158;51.436;-2.742;2023-06-22T03:55:19;4.20;;;3.85;;
33862;SDS011;20158;51.436;-2.742;2023-06-22T03:57:45;4.75;;;4.35;;
33862;SDS011;20158;51.436;-2.742;2023-06-22T04:00:12;4.20;;;3.80;;
33862;SDS011;20158;51.436;-2.742;2023-06-22T04:02:40;5.05;;;4.38;;
33862;SDS011;20158;51.436;-2.742;2023-06-22T04:05:06;4.45;;;3.97;;
33862;SDS011;20158;51.436;-2.742;2023-06-22T04:07:34;4.50;;;4.10;;
33862;SDS011;20158;51.436;-2.742;2023-06-22T04:10:03;5.55;;;4.72;;
33862;SDS011;20158;51.436;-2.742;2023-06-22T04:12:30;4.93;;;4.53;;
33862;SDS011;20158;51.436;-2.742;2023-06-22T04:14:56;4.60;;;4.20;;
33862;SDS011;20158;51.436;-2.742;2023-06-22T04:17:22;4.93;;;4.53;;
33862;SDS011;20158;51.436;-2.742;2023-06-22T04:19:50;4.40;;;4.00;;
33862;SDS011;20158;51.436;-2.742;2023-06-22T04:22:17;4.70;;;4.30;;
33862;SDS011;20158;51.436;-2.742;2023-06-22T04:24:46;4.03;;;3.72;;
33862;SDS011;20158;51.436;-2.742;2023-06-22T04:27:15;5.03;;;4.57;;
33862;SDS011;20158;51.436;-2.742;2023-06-22T04:29:41;5.13;;;4.63;;
33862;SDS011;20158;51.436;-2.742;2023-06-22T04:32:15;4.80;;;4.40;;
33862;SDS011;20158;51.436;-2.742;2023-06-22T04:34:42;4.25;;;3.85;;
33862;SDS011;20158;51.436;-2.742;2023-06-22T04:37:08;4.20;;;3.88;;
33862;SDS011;20158;51.436;-2.742;2023-06-22T04:39:34;4.72;;;4.32;;
33862;SDS011;20158;51.436;-2.742;2023-06-22T04:42:01;5.22;;;4.72;;
33862;SDS011;20158;51.436;-2.742;2023-06-22T04:44:27;5.05;;;4.55;;
33862;SDS011;20158;51.436;-2.742;2023-06-22T04:46:55;5.47;;;4.97;;
33862;SDS011;20158;51.436;-2.742;2023-06-22T04:49:30;5.03;;;4.53;;
33862;SDS011;20158;51.436;-2.742;2023-06-22T04:52:00;5.55;;;4.88;;
33862;SDS011;20158;51.436;-2.742;2023-06-22T04:54:33;4.30;;;4.00;;
33862;SDS011;20158;51.436;-2.742;2023-06-22T04:57:01;5.07;;;4.15;;
33862;SDS011;20158;51.436;-2.742;2023-06-22T04:59:29;4.90;;;4.50;;
33862;SDS011;20158;51.436;-2.742;2023-06-22T05:01:57;4.93;;;4.53;;
33862;SDS011;20158;51.436;-2.742;2023-06-22T05:04:24;5.43;;;4.93;;
33862;SDS011;20158;51.436;-2.742;2023-06-22T05:06:51;5.95;;;5.18;;
33862;SDS011;20158;51.436;-2.742;2023-06-22T05:09:18;5.18;;;4.78;;
33862;SDS011;20158;51.436;-2.742;2023-06-22T05:11:44;5.72;;;4.72;;
33862;SDS011;20158;51.436;-2.742;2023-06-22T05:14:11;5.57;;;4.97;;
33862;SDS011;20158;51.436;-2.742;2023-06-22T05:16:38;7.18;;;5.10;;
33862;SDS011;20158;51.436;-2.742;2023-06-22T05:19:04;5.28;;;4.72;;
33862;SDS011;20158;51.436;-2.742;2023-06-22T05:21:31;5.30;;;4.80;;
33862;SDS011;20158;51.436;-2.742;2023-06-22T05:23:57;6.40;;;5.40;;
33862;SDS011;20158;51.436;-2.742;2023-06-22T05:26:28;5.63;;;5.13;;
33862;SDS011;20158;51.436;-2.742;2023-06-22T05:28:59;6.55;;;5.40;;
33862;SDS011;20158;51.436;-2.742;2023-06-22T05:31:26;5.88;;;5.38;;
33862;SDS011;20158;51.436;-2.742;2023-06-22T05:33:53;5.45;;;4.95;;
33862;SDS011;20158;51.436;-2.742;2023-06-22T05:36:21;5.32;;;4.93;;
33862;SDS011;20158;51.436;-2.742;2023-06-22T05:38:50;6.32;;;5.78;;
33862;SDS011;20158;51.436;-2.742;2023-06-22T05:41:17;5.22;;;4.72;;
33862;SDS011;20158;51.436;-2.742;2023-06-22T05:43:44;5.80;;;4.82;;
33862;SDS011;20158;51.436;-2.742;2023-06-22T05:46:10;6.82;;;6.13;;
33862;SDS011;20158;51.436;-2.742;2023-06-22T05:48:36;5.82;;;5.32;;
33862;SDS011;20158;51.436;-2.742;2023-06-22T05:51:02;5.65;;;5.03;;
33862;SDS011;20158;51.436;-2.742;2023-06-22T05:53:28;8.27;;;6.65;;
33862;SDS011;20158;51.436;-2.742;2023-06-22T05:55:57;5.65;;;5.15;;
33862;SDS011;20158;51.436;-2.742;2023-06-22T05:58:23;7.03;;;6.32;;
33862;SDS011;20158;51.436;-2.742;2023-06-22T06:00:49;7.40;;;6.63;;
33862;SDS011;20158;51.436;-2.742;2023-06-22T06:03:15;6.97;;;6.28;;
33862;SDS011;20158;51.436;-2.742;2023-06-22T06:05:42;7.32;;;6.70;;
33862;SDS011;20158;51.436;-2.742;2023-06-22T06:08:09;7.88;;;7.07;;
33862;SDS011;20158;51.436;-2.742;2023-06-22T06:10:36;7.68;;;6.97;;
33862;SDS011;20158;51.436;-2.742;2023-06-22T06:13:03;7.68;;;6.90;;
33862;SDS011;20158;51.436;-2.742;2023-06-22T06:15:33;7.15;;;6.43;;
33862;SDS011;20158;51.436;-2.742;2023-06-22T06:18:00;7.32;;;6.65;;
33862;SDS011;20158;51.436;-2.742;2023-06-22T06:20:27;7.45;;;6.65;;
33862;SDS011;20158;51.436;-2.742;2023-06-22T06:22:53;7.85;;;7.15;;
33862;SDS011;20158;51.436;-2.742;2023-06-22T06:25:19;7.38;;;6.68;;
33862;SDS011;20158;51.436;-2.742;2023-06-22T06:27:47;8.40;;;7.57;;
33862;SDS011;20158;51.436;-2.742;2023-06-22T06:30:18;7.47;;;6.78;;
33862;SDS011;20158;51.436;-2.742;2023-06-22T06:32:44;7.70;;;6.90;;
33862;SDS011;20158;51.436;-2.742;2023-06-22T06:35:14;8.90;;;6.93;;
33862;SDS011;20158;51.436;-2.742;2023-06-22T06:37:42;7.50;;;6.80;;
33862;SDS011;20158;51.436;-2.742;2023-06-22T06:40:10;7.65;;;6.90;;
33862;SDS011;20158;51.436;-2.742;2023-06-22T06:42:37;7.18;;;6.57;;
33862;SDS011;20158;51.436;-2.742;2023-06-22T06:45:20;6.55;;;6.03;;
33862;SDS011;20158;51.436;-2.742;2023-06-22T06:47:51;7.85;;;6.25;;
33862;SDS011;20158;51.436;-2.742;2023-06-22T06:50:18;7.50;;;6.60;;
33862;SDS011;20158;51.436;-2.742;2023-06-22T06:52:44;7.18;;;6.55;;
33862;SDS011;20158;51.436;-2.742;2023-06-22T06:55:10;7.07;;;6.38;;
33862;SDS011;20158;51.436;-2.742;2023-06-22T06:57:42;6.85;;;6.22;;
33862;SDS011;20158;51.436;-2.742;2023-06-22T07:00:09;9.15;;;6.40;;
33862;SDS011;20158;51.436;-2.742;2023-06-22T07:02:39;6.20;;;5.65;;
33862;SDS011;20158;51.436;-2.742;2023-06-22T07:05:05;6.03;;;5.53;;
33862;SDS011;20158;51.436;-2.742;2023-06-22T07:07:32;6.88;;;6.18;;
33862;SDS011;20158;51.436;-2.742;2023-06-22T07:09:58;6.72;;;6.10;;
33862;SDS011;20158;51.436;-2.742;2023-06-22T07:12:28;6.75;;;5.65;;
33862;SDS011;20158;51.436;-2.742;2023-06-22T07:15:03;5.95;;;5.35;;
33862;SDS011;20158;51.436;-2.742;2023-06-22T07:17:33;6.18;;;5.57;;
33862;SDS011;20158;51.436;-2.742;2023-06-22T07:20:03;6.75;;;5.43;;
33862;SDS011;20158;51.436;-2.742;2023-06-22T07:22:39;6.05;;;5.18;;
33862;SDS011;20158;51.436;-2.742;2023-06-22T07:25:06;5.45;;;4.95;;
33862;SDS011;20158;51.436;-2.742;2023-06-22T07:27:38;6.90;;;5.43;;
33862;SDS011;20158;51.436;-2.742;2023-06-22T07:30:11;5.38;;;4.97;;
33862;SDS011;20158;51.436;-2.742;2023-06-22T07:32:38;5.55;;;5.07;;
33862;SDS011;20158;51.436;-2.742;2023-06-22T07:35:06;7.45;;;5.07;;
33862;SDS011;20158;51.436;-2.742;2023-06-22T07:37:32;7.47;;;5.70;;
33862;SDS011;20158;51.436;-2.742;2023-06-22T07:40:00;5.57;;;4.57;;
33862;SDS011;20158;51.436;-2.742;2023-06-22T07:42:26;5.03;;;4.50;;
33862;SDS011;20158;51.436;-2.742;2023-06-22T07:44:53;5.07;;;4.40;;
33862;SDS011;20158;51.436;-2.742;2023-06-22T07:47:20;5.80;;;4.43;;
33862;SDS011;20158;51.436;-2.742;2023-06-22T07:49:50;4.55;;;3.85;;
33862;SDS011;20158;51.436;-2.742;2023-06-22T07:52:19;4.03;;;3.70;;
33862;SDS011;20158;51.436;-2.742;2023-06-22T07:54:52;4.25;;;3.47;;
33862;SDS011;20158;51.436;-2.742;2023-06-22T07:57:18;4.10;;;3.70;;
33862;SDS011;20158;51.436;-2.742;2023-06-22T07:59:45;4.78;;;3.80;;
33862;SDS011;20158;51.436;-2.742;2023-06-22T08:02:11;3.83;;;3.00;;
33862;SDS011;20158;51.436;-2.742;2023-06-22T08:04:40;4.63;;;3.03;;
33862;SDS011;20158;51.436;-2.742;2023-06-22T08:07:10;2.80;;;2.60;;
33862;SDS011;20158;51.436;-2.742;2023-06-22T08:09:36;3.00;;;2.78;;
33862;SDS011;20158;51.436;-2.742;2023-06-22T08:12:05;3.70;;;2.80;;
33862;SDS011;20158;51.436;-2.742;2023-06-22T08:14:32;3.00;;;2.67;;
33862;SDS011;20158;51.436;-2.742;2023-06-22T08:16:58;3.58;;;3.28;;
33862;SDS011;20158;51.436;-2.742;2023-06-22T08:19:24;2.97;;;2.60;;
33862;SDS011;20158;51.436;-2.742;2023-06-22T08:21:50;2.80;;;2.60;;
33862;SDS011;20158;51.436;-2.742;2023-06-22T08:24:16;2.97;;;2.65;;
33862;SDS011;20158;51.436;-2.742;2023-06-22T08:26:42;3.05;;;2.85;;
33862;SDS011;20158;51.436;-2.742;2023-06-22T08:29:08;2.90;;;2.33;;
33862;SDS011;20158;51.436;-2.742;2023-06-22T08:31:35;3.20;;;2.90;;
33862;SDS011;20158;51.436;-2.742;2023-06-22T08:34:01;2.47;;;2.28;;
33862;SDS011;20158;51.436;-2.742;2023-06-22T08:36:27;2.95;;;2.75;;
33862;SDS011;20158;51.436;-2.742;2023-06-22T08:38:58;2.90;;;2.70;;
33862;SDS011;20158;51.436;-2.742;2023-06-22T08:41:28;2.80;;;2.53;;
33862;SDS011;20158;51.436;-2.742;2023-06-22T08:43:55;3.15;;;2.63;;
33862;SDS011;20158;51.436;-2.742;2023-06-22T08:46:21;2.85;;;2.65;;
33862;SDS011;20158;51.436;-2.742;2023-06-22T08:48:52;2.67;;;2.47;;
33862;SDS011;20158;51.436;-2.742;2023-06-22T08:51:18;3.47;;;3.17;;
33862;SDS011;20158;51.436;-2.742;2023-06-22T08:53:47;3.13;;;2.70;;
33862;SDS011;20158;51.436;-2.742;2023-06-22T08:56:16;2.70;;;2.50;;
33862;SDS011;20158;51.436;-2.742;2023-06-22T08:58:42;3.00;;;2.67;;
33862;SDS011;20158;51.436;-2.742;2023-06-22T09:01:08;2.78;;;2.58;;
33862;SDS011;20158;51.436;-2.742;2023-06-22T09:03:37;4.75;;;2.78;;
33862;SDS011;20158;51.436;-2.742;2023-06-22T09:06:03;2.95;;;2.75;;
33862;SDS011;20158;51.436;-2.742;2023-06-22T09:08:29;2.45;;;2.25;;
33862;SDS011;20158;51.436;-2.742;2023-06-22T09:10:55;2.63;;;2.40;;
33862;SDS011;20158;51.436;-2.742;2023-06-22T09:13:22;2.72;;;2.53;;
33862;SDS011;20158;51.436;-2.742;2023-06-22T09:15:51;3.10;;;2.40;;
33862;SDS011;20158;51.436;-2.742;2023-06-22T09:18:17;2.92;;;2.65;;
33862;SDS011;20158;51.436;-2.742;2023-06-22T09:20:44;2.15;;;1.98;;
33862;SDS011;20158;51.436;-2.742;2023-06-22T09:23:10;2.85;;;2.38;;
33862;SDS011;20158;51.436;-2.742;2023-06-22T09:25:39;2.58;;;2.20;;
33862;SDS011;20158;51.436;-2.742;2023-06-22T09:28:09;2.80;;;2.60;;
33862;SDS011;20158;51.436;-2.742;2023-06-22T09:30:35;2.70;;;2.50;;
33862;SDS011;20158;51.436;-2.742;2023-06-22T09:33:00;3.63;;;2.97;;
33862;SDS011;20158;51.436;-2.742;2023-06-22T09:35:27;2.47;;;2.28;;
33862;SDS011;20158;51.436;-2.742;2023-06-22T09:37:54;2.80;;;2.45;;
33862;SDS011;20158;51.436;-2.742;2023-06-22T09:40:22;3.30;;;2.42;;
33862;SDS011;20158;51.436;-2.742;2023-06-22T09:42:48;2.65;;;2.45;;
33862;SDS011;20158;51.436;-2.742;2023-06-22T09:45:17;2.67;;;2.47;;
33862;SDS011;20158;51.436;-2.742;2023-06-22T10:13:44;2.35;;;2.15;;
33862;SDS011;20158;51.436;-2.742;2023-06-22T10:16:10;2.45;;;2.25;;
33862;SDS011;20158;51.436;-2.742;2023-06-22T10:18:36;2.10;;;1.90;;
33862;SDS011;20158;51.436;-2.742;2023-06-22T10:21:02;2.10;;;1.90;;
33862;SDS011;20158;51.436;-2.742;2023-06-22T10:23:28;2.17;;;1.98;;
33862;SDS011;20158;51.436;-2.742;2023-06-22T10:25:54;1.83;;;1.73;;
33862;SDS011;20158;51.436;-2.742;2023-06-22T10:28:25;2.38;;;2.17;;
33862;SDS011;20158;51.436;-2.742;2023-06-22T10:30:54;2.55;;;2.10;;
33862;SDS011;20158;51.436;-2.742;2023-06-22T10:33:20;2.55;;;2.00;;
33862;SDS011;20158;51.436;-2.742;2023-06-22T10:35:46;2.28;;;2.08;;
33862;SDS011;20158;51.436;-2.742;2023-06-22T10:38:15;2.08;;;1.88;;
33862;SDS011;20158;51.436;-2.742;2023-06-22T10:40:46;2.58;;;1.77;;
33862;SDS011;20158;51.436;-2.742;2023-06-22T10:43:12;1.95;;;1.73;;
33862;SDS011;20158;51.436;-2.742;2023-06-22T10:45:38;2.53;;;2.20;;
33862;SDS011;20158;51.436;-2.742;2023-06-22T10:48:04;2.40;;;2.08;;
33862;SDS011;20158;51.436;-2.742;2023-06-22T10:50:33;2.47;;;1.67;;
33862;SDS011;20158;51.436;-2.742;2023-06-22T10:53:02;2.40;;;1.60;;
33862;SDS011;20158;51.436;-2.742;2023-06-22T10:55:28;2.60;;;2.03;;
33862;SDS011;20158;51.436;-2.742;2023-06-22T10:57:54;2.42;;;2.10;;
33862;SDS011;20158;51.436;-2.742;2023-06-22T11:00:20;2.75;;;2.20;;
33862;SDS011;20158;51.436;-2.742;2023-06-22T11:02:46;2.30;;;2.03;;
33862;SDS011;20158;51.436;-2.742;2023-06-22T11:05:12;1.90;;;1.80;;
33862;SDS011;20158;51.436;-2.742;2023-06-22T11:07:42;2.17;;;1.98;;
33862;SDS011;20158;51.436;-2.742;2023-06-22T11:10:09;2.05;;;1.85;;
33862;SDS011;20158;51.436;-2.742;2023-06-22T11:12:36;1.85;;;1.73;;
33862;SDS011;20158;51.436;-2.742;2023-06-22T11:15:02;2.83;;;2.20;;
33862;SDS011;20158;51.436;-2.742;2023-06-22T11:17:28;1.88;;;1.77;;
33862;SDS011;20158;51.436;-2.742;2023-06-22T11:19:57;2.03;;;1.88;;
33862;SDS011;20158;51.436;-2.742;2023-06-22T11:22:25;2.47;;;1.90;;
33862;SDS011;20158;51.436;-2.742;2023-06-22T11:24:51;2.13;;;1.92;;
33862;SDS011;20158;51.436;-2.742;2023-06-22T11:27:17;2.05;;;1.92;;
33862;SDS011;20158;51.436;-2.742;2023-06-22T11:29:43;2.53;;;2.33;;
33862;SDS011;20158;51.436;-2.742;2023-06-22T11:32:15;1.92;;;1.83;;
33862;SDS011;20158;51.436;-2.742;2023-06-22T11:34:41;2.10;;;1.90;;
33862;SDS011;20158;51.436;-2.742;2023-06-22T11:37:07;2.17;;;1.98;;
33862;SDS011;20158;51.436;-2.742;2023-06-22T11:39:33;2.13;;;2.03;;
33862;SDS011;20158;51.436;-2.742;2023-06-22T11:42:11;1.85;;;1.75;;
33862;SDS011;20158;51.436;-2.742;2023-06-22T11:44:37;2.05;;;1.95;;
33862;SDS011;20158;51.436;-2.742;2023-06-22T11:47:04;4.30;;;2.20;;
33862;SDS011;20158;51.436;-2.742;2023-06-22T11:49:33;2.10;;;2.00;;
33862;SDS011;20158;51.436;-2.742;2023-06-22T11:51:59;2.30;;;2.00;;
33862;SDS011;20158;51.436;-2.742;2023-06-22T11:54:25;1.85;;;1.75;;
33862;SDS011;20158;51.436;-2.742;2023-06-22T11:56:52;2.10;;;1.88;;
33862;SDS011;20158;51.436;-2.742;2023-06-22T11:59:18;2.40;;;2.20;;
33862;SDS011;20158;51.436;-2.742;2023-06-22T12:01:47;2.20;;;1.80;;
33862;SDS011;20158;51.436;-2.742;2023-06-22T12:04:14;1.73;;;1.63;;
33862;SDS011;20158;51.436;-2.742;2023-06-22T12:06:40;2.38;;;1.98;;
33862;SDS011;20158;51.436;-2.742;2023-06-22T12:09:08;2.83;;;2.28;;
33862;SDS011;20158;51.436;-2.742;2023-06-22T12:11:34;1.90;;;1.67;;
33862;SDS011;20158;51.436;-2.742;2023-06-22T12:14:03;1.83;;;1.70;;
33862;SDS011;20158;51.436;-2.742;2023-06-22T12:16:29;2.08;;;1.80;;
33862;SDS011;20158;51.436;-2.742;2023-06-22T12:18:59;1.83;;;1.73;;
33862;SDS011;20158;51.436;-2.742;2023-06-22T12:21:30;2.13;;;1.88;;
33862;SDS011;20158;51.436;-2.742;2023-06-22T12:23:56;1.60;;;1.50;;
33862;SDS011;20158;51.436;-2.742;2023-06-22T12:26:22;1.48;;;1.38;;
33862;SDS011;20158;51.436;-2.742;2023-06-22T12:28:54;1.70;;;1.60;;
33862;SDS011;20158;51.436;-2.742;2023-06-22T12:31:21;2.70;;;2.08;;
33862;SDS011;20158;51.436;-2.742;2023-06-22T12:33:47;2.25;;;2.03;;
33862;SDS011;20158;51.436;-2.742;2023-06-22T12:36:12;3.13;;;1.92;;
33862;SDS011;20158;51.436;-2.742;2023-06-22T12:38:41;1.85;;;1.75;;
33862;SDS011;20158;51.436;-2.742;2023-06-22T12:41:07;1.88;;;1.77;;
33862;SDS011;20158;51.436;-2.742;2023-06-22T12:43:34;1.58;;;1.48;;
33862;SDS011;20158;51.436;-2.742;2023-06-22T12:46:00;2.15;;;1.70;;
33862;SDS011;20158;51.436;-2.742;2023-06-22T12:48:27;2.03;;;1.90;;
33862;SDS011;20158;51.436;-2.742;2023-06-22T12:50:53;2.10;;;2.00;;
33862;SDS011;20158;51.436;-2.742;2023-06-22T12:53:19;1.67;;;1.58;;
33862;SDS011;20158;51.436;-2.742;2023-06-22T12:55:48;2.00;;;1.90;;
33862;SDS011;20158;51.436;-2.742;2023-06-22T12:58:17;2.03;;;1.65;;
33862;SDS011;20158;51.436;-2.742;2023-06-22T13:00:43;1.98;;;1.77;;
33862;SDS011;20158;51.436;-2.742;2023-06-22T13:03:11;2.83;;;2.00;;
33862;SDS011;20158;51.436;-2.742;2023-06-22T13:05:37;2.58;;;1.95;;
33862;SDS011;20158;51.436;-2.742;2023-06-22T13:08:03;1.88;;;1.73;;
33862;SDS011;20158;51.436;-2.742;2023-06-22T13:10:29;2.03;;;1.67;;
33862;SDS011;20158;51.436;-2.742;2023-06-22T13:12:55;1.92;;;1.83;;
33862;SDS011;20158;51.436;-2.742;2023-06-22T13:15:26;1.70;;;1.52;;
33862;SDS011;20158;51.436;-2.742;2023-06-22T13:18:04;1.60;;;1.50;;
33862;SDS011;20158;51.436;-2.742;2023-06-22T13:20:33;1.92;;;1.83;;
33862;SDS011;20158;51.436;-2.742;2023-06-22T13:23:05;1.85;;;1.67;;
33862;SDS011;20158;51.436;-2.742;2023-06-22T13:25:31;1.52;;;1.42;;
33862;SDS011;20158;51.436;-2.742;2023-06-22T13:27:57;1.88;;;1.70;;
33862;SDS011;20158;51.436;-2.742;2023-06-22T13:30:23;2.55;;;1.83;;
33862;SDS011;20158;51.436;-2.742;2023-06-22T13:32:55;1.77;;;1.58;;
33862;SDS011;20158;51.436;-2.742;2023-06-22T13:35:21;1.73;;;1.63;;
33862;SDS011;20158;51.436;-2.742;2023-06-22T13:37:47;1.70;;;1.60;;
33862;SDS011;20158;51.436;-2.742;2023-06-22T13:40:16;1.80;;;1.70;;
33862;SDS011;20158;51.436;-2.742;2023-06-22T13:42:42;1.60;;;1.50;;
33862;SDS011;20158;51.436;-2.742;2023-06-22T13:45:08;3.30;;;1.92;;
33862;SDS011;20158;51.436;-2.742;2023-06-22T13:47:34;1.45;;;1.27;;
33862;SDS011;20158;51.436;-2.742;2023-06-22T13:50:00;2.50;;;1.70;;
33862;SDS011;20158;51.436;-2.742;2023-06-22T13:52:27;1.60;;;1.50;;
33862;SDS011;20158;51.436;-2.742;2023-06-22T13:54:55;1.58;;;1.48;;
33862;SDS011;20158;51.436;-2.742;2023-06-22T13:57:21;1.70;;;1.60;;
33862;SDS011;20158;51.436;-2.742;2023-06-22T13:59:47;1.92;;;1.80;;
33862;SDS011;20158;51.436;-2.742;2023-06-22T14:02:22;1.70;;;1.40;;
33862;SDS011;20158;51.436;-2.742;2023-06-22T14:04:48;1.88;;;1.67;;
33862;SDS011;20158;51.436;-2.742;2023-06-22T14:07:17;1.52;;;1.42;;
33862;SDS011;20158;51.436;-2.742;2023-06-22T14:09:47;1.85;;;1.75;;
33862;SDS011;20158;51.436;-2.742;2023-06-22T14:12:39;2.08;;;1.77;;
33862;SDS011;20158;51.436;-2.742;2023-06-22T14:15:05;2.05;;;1.92;;
33862;SDS011;20158;51.436;-2.742;2023-06-22T14:17:35;1.65;;;1.55;;
33862;SDS011;20158;51.436;-2.742;2023-06-22T14:20:01;1.80;;;1.70;;
33862;SDS011;20158;51.436;-2.742;2023-06-22T14:22:30;1.80;;;1.70;;
33862;SDS011;20158;51.436;-2.742;2023-06-22T14:24:56;1.80;;;1.70;;
33862;SDS011;20158;51.436;-2.742;2023-06-22T14:27:23;2.08;;;1.30;;
33862;SDS011;20158;51.436;-2.742;2023-06-22T14:29:49;1.50;;;1.40;;
33862;SDS011;20158;51.436;-2.742;2023-06-22T14:32:15;2.65;;;1.83;;
33862;SDS011;20158;51.436;-2.742;2023-06-22T14:34:44;1.52;;;1.40;;
33862;SDS011;20158;51.436;-2.742;2023-06-22T14:37:10;1.83;;;1.73;;
33862;SDS011;20158;51.436;-2.742;2023-06-22T14:39:38;1.48;;;1.38;;
33862;SDS011;20158;51.436;-2.742;2023-06-22T14:42:05;1.73;;;1.63;;
33862;SDS011;20158;51.436;-2.742;2023-06-22T14:44:31;2.13;;;1.92;;
33862;SDS011;20158;51.436;-2.742;2023-06-22T14:46:57;1.60;;;1.48;;
33862;SDS011;20158;51.436;-2.742;2023-06-22T14:49:23;1.60;;;1.45;;
33862;SDS011;20158;51.436;-2.742;2023-06-22T14:51:49;1.98;;;1.77;;
33862;SDS011;20158;51.436;-2.742;2023-06-22T14:54:18;1.30;;;1.20;;
33862;SDS011;20158;51.436;-2.742;2023-06-22T14:56:50;1.67;;;1.58;;
33862;SDS011;20158;51.436;-2.742;2023-06-22T14:59:16;1.83;;;1.70;;
33862;SDS011;20158;51.436;-2.742;2023-06-22T15:01:42;1.77;;;1.67;;
33862;SDS011;20158;51.436;-2.742;2023-06-22T15:04:08;1.65;;;1.40;;
33862;SDS011;20158;51.436;-2.742;2023-06-22T15:06:36;1.80;;;1.70;;
33862;SDS011;20158;51.436;-2.742;2023-06-22T15:09:02;2.10;;;1.90;;
33862;SDS011;20158;51.436;-2.742;2023-06-22T15:11:28;1.70;;;1.60;;
33862;SDS011;20158;51.436;-2.742;2023-06-22T15:13:57;6.45;;;2.08;;